Time;durP1;ratioP1;P1;durP2;ratioP2;P2;SDS_P1;SDS_P2;PMS_P1;PMS_P2;Temp;Humidity;BMP_temperature;BMP_pressure;BME280_temperature;BME280_humidity;BME280_pressure;Samples;Min_cycle;Max_cycle;Signal;HPM_P1;HPM_P2
2022/06/18 05:47:39;;;;;;;171.95;101.20;;;;;;;18.67;54.70;97046.47;2083439;28;20577;-58
2022/06/18 05:48:41;;;;;;;176.38;116.38;;;;;;;18.76;54.10;97036.06;2082992;28;20224;-59
2022/06/18 05:49:42;;;;;;;161.77;96.90;;;;;;;18.95;53.76;97047.19;2077585;28;20198;-59
2022/06/18 05:50:45;;;;;;;245.07;219.32;;;;;;;18.65;54.27;97038.66;2073059;28;20263;-59
2022/06/18 05:51:46;;;;;;;290.13;261.83;;;;;;;18.90;54.20;97035.09;2075654;28;20215;-59
2022/06/18 05:52:48;;;;;;;352.20;320.40;;;;;;;19.08;54.09;97032.06;2071122;28;20244;-59
2022/06/18 05:53:55;;;;;;;344.65;313.38;;;;;;;19.31;53.54;97037.50;2083003;28;20827;-59
2022/06/18 05:54:57;;;;;;;377.05;341.42;;;;;;;19.23;52.91;97017.72;2070511;28;20204;-59
2022/06/18 05:55:59;;;;;;;368.63;333.67;;;;;;;19.42;53.36;97040.19;2070493;28;20197;-59
2022/06/18 05:57:01;;;;;;;485.92;442.65;;;;;;;19.50;52.88;97029.88;2072541;28;20220;-59
2022/06/18 05:58:02;;;;;;;432.27;394.73;;;;;;;19.62;52.30;97041.34;2074828;28;20216;-59
2022/06/18 05:59:04;;;;;;;315.80;286.38;;;;;;;19.67;52.21;97038.38;2070471;28;20248;-59
2022/06/18 06:00:06;;;;;;;286.25;258.92;;;;;;;19.72;52.25;97045.00;2070647;28;20212;-59
2022/06/18 06:01:08;;;;;;;185.45;153.80;;;;;;;19.82;52.03;97046.94;2073187;28;20202;-59
2022/06/18 06:02:12;;;;;;;175.40;131.98;;;;;;;19.78;51.71;97025.13;2064168;28;20204;-59
2022/06/18 06:03:13;;;;;;;165.60;111.63;;;;;;;19.98;51.59;97044.84;2082312;28;20267;-59
2022/06/18 06:04:16;;;;;;;124.28;39.35;;;;;;;20.04;51.06;97039.06;2073005;28;20557;-59
2022/06/18 06:05:25;;;;;;;125.80;41.53;;;;;;;20.10;51.17;97040.41;2074487;28;20247;-59
2022/06/18 06:06:27;;;;;;;137.25;58.75;;;;;;;20.04;50.78;97024.97;2074162;28;20205;-59
2022/06/18 06:07:28;;;;;;;124.25;41.67;;;;;;;20.21;51.02;97037.78;2068255;28;20228;-59
2022/06/18 06:08:30;;;;;;;137.52;58.83;;;;;;;20.30;50.72;97038.00;2084526;28;20200;-59
2022/06/18 06:12:13;;;;;;;123.95;39.85;;;;;;;20.54;49.72;97041.41;2069802;28;20198;-59
2022/06/18 06:13:15;;;;;;;123.57;41.63;;;;;;;20.45;49.80;97010.28;2074481;28;20205;-60
2022/06/18 06:14:18;;;;;;;128.20;45.10;;;;;;;20.64;49.59;97022.09;2071870;28;20665;-60
2022/06/18 06:15:20;;;;;;;132.05;47.20;;;;;;;20.96;49.45;97040.78;2074443;28;20193;-60
2022/06/18 06:16:23;;;;;;;119.63;32.33;;;;;;;20.98;49.04;97036.19;2072960;28;20605;-60
2022/06/18 06:17:25;;;;;;;121.88;35.50;;;;;;;21.06;48.65;97034.72;2064404;28;20217;-60
2022/06/18 06:18:28;;;;;;;141.85;70.38;;;;;;;21.21;48.04;97041.44;2080684;28;20564;-60
2022/06/18 06:19:29;;;;;;;175.63;133.93;;;;;;;21.25;47.46;97037.53;2077109;28;20194;-59
2022/06/18 06:20:36;;;;;;;168.20;122.18;;;;;;;21.30;47.96;97042.50;2073370;28;20513;-59
2022/06/18 06:21:37;;;;;;;171.02;122.47;;;;;;;21.27;47.92;97038.28;2070187;28;20256;-59
2022/06/18 06:22:39;;;;;;;163.93;107.97;;;;;;;21.28;48.06;97025.81;2066198;28;20566;-60
2022/06/18 06:23:41;;;;;;;175.18;134.98;;;;;;;21.40;47.74;97037.28;2080438;28;20197;-59
2022/06/18 06:24:42;;;;;;;151.70;82.40;;;;;;;21.25;48.90;97034.88;2076539;28;20205;-59
2022/06/18 06:25:45;;;;;;;143.25;73.93;;;;;;;21.43;48.53;97039.66;2074465;28;20206;-59
2022/06/18 06:26:47;;;;;;;136.30;67.00;;;;;;;21.56;48.51;97043.03;2074122;28;20212;-59
2022/06/18 06:27:48;;;;;;;132.95;54.30;;;;;;;21.59;49.12;97036.63;2072728;28;20221;-59
2022/06/18 06:28:50;;;;;;;132.10;58.55;;;;;;;21.33;48.53;96973.19;2075654;28;20247;-60
2022/06/18 06:29:51;;;;;;;127.03;47.25;;;;;;;21.60;49.57;97035.63;2075590;28;20397;-59
2022/06/18 06:30:54;;;;;;;128.15;53.58;;;;;;;21.84;49.50;97040.72;2070563;28;20626;-59
2022/06/18 06:31:56;;;;;;;140.90;64.90;;;;;;;22.00;49.27;97033.13;2060841;28;20198;-59
2022/06/18 06:32:57;;;;;;;129.73;55.97;;;;;;;22.14;48.89;97031.09;2073512;28;20209;-60
2022/06/18 06:33:59;;;;;;;137.73;64.38;;;;;;;22.09;49.23;97031.47;2066985;28;20208;-59
2022/06/18 06:35:00;;;;;;;138.60;59.95;;;;;;;21.82;49.90;97026.72;2074240;28;20687;-60
2022/06/18 06:36:02;;;;;;;146.43;83.25;;;;;;;22.00;49.81;97021.63;2075135;28;20197;-60
2022/06/18 06:37:04;;;;;;;147.27;85.53;;;;;;;22.16;50.08;97021.19;2072329;28;20582;-60
2022/06/18 06:38:06;;;;;;;139.82;73.75;;;;;;;22.17;49.63;97029.00;2082739;28;20976;-60
2022/06/18 06:39:08;;;;;;;176.45;129.88;;;;;;;22.34;50.11;97027.56;2082024;28;20205;-60
2022/06/18 06:40:13;;;;;;;135.15;66.25;;;;;;;22.60;49.24;97024.47;2072763;28;20561;-60
2022/06/18 06:41:21;;;;;;;131.13;59.45;;;;;;;22.69;48.99;97021.97;2074528;28;20638;-60
2022/06/18 06:42:22;;;;;;;134.25;60.22;;;;;;;22.69;49.21;97016.66;2075262;28;20244;-60
2022/06/18 06:43:24;;;;;;;131.05;57.28;;;;;;;22.64;49.74;97027.72;2070357;28;20198;-60
2022/06/18 06:44:26;;;;;;;140.35;68.63;;;;;;;22.66;49.41;97020.44;2070085;28;20205;-60
2022/06/18 06:45:33;;;;;;;139.10;73.13;;;;;;;22.89;49.43;97023.72;2073618;28;20730;-60
2022/06/18 06:46:35;;;;;;;144.38;80.90;;;;;;;22.98;49.45;97025.56;2073943;28;20198;-60
2022/06/18 06:47:36;;;;;;;135.23;64.70;;;;;;;23.03;48.88;97019.81;2070291;28;20553;-60
2022/06/18 06:48:38;;;;;;;143.38;78.13;;;;;;;23.16;48.77;97019.59;2083044;28;20652;-60
2022/06/18 06:49:41;;;;;;;150.48;85.28;;;;;;;23.19;49.25;97021.16;2074073;28;20194;-60
2022/06/18 06:50:48;;;;;;;144.40;87.45;;;;;;;23.31;48.11;97020.03;2075147;28;20197;-60
2022/06/18 06:51:50;;;;;;;153.23;97.45;;;;;;;23.27;47.98;96995.50;2074704;28;20209;-60
2022/06/18 06:52:53;;;;;;;153.65;97.15;;;;;;;23.41;48.12;97022.69;2073098;28;20221;-60
2022/06/18 06:53:54;;;;;;;167.98;115.85;;;;;;;23.46;47.92;97021.31;2081707;28;20208;-60
2022/06/18 06:57:21;;;;;;;177.38;134.82;;;;;;;23.54;47.81;97011.75;2073372;28;20209;-60
2022/06/18 06:57:42;;;;;;;174.85;132.68;;;;;;;23.62;47.44;97017.22;2066882;28;20213;-59
2022/06/18 06:58:50;;;;;;;171.50;133.95;;;;;;;23.59;47.38;97015.69;2074882;28;20193;-59
2022/06/18 06:59:51;;;;;;;172.18;131.80;;;;;;;23.59;47.30;96999.69;2067452;28;20202;-59
2022/06/18 07:00:56;;;;;;;172.68;134.20;;;;;;;23.83;47.14;97022.38;2068386;28;20546;-59
2022/06/18 07:01:57;;;;;;;176.07;135.07;;;;;;;23.89;46.98;97004.97;2067784;28;20202;-59
2022/06/18 07:02:59;;;;;;;163.90;120.00;;;;;;;24.12;46.97;97017.03;2064741;28;20199;-59
2022/06/18 07:04:04;;;;;;;158.85;113.53;;;;;;;24.18;46.59;97012.13;2064700;28;20202;-59
2022/06/18 07:05:06;;;;;;;162.00;117.15;;;;;;;24.49;46.75;97012.69;2067977;28;20237;-59
2022/06/18 07:06:08;;;;;;;162.52;114.97;;;;;;;24.21;46.70;96951.28;2067087;28;20206;-59
2022/06/18 07:07:14;;;;;;;159.85;113.28;;;;;;;24.59;46.54;97010.81;2061487;28;20684;-60
2022/06/18 07:08:17;;;;;;;142.80;84.00;;;;;;;24.74;46.02;97007.69;2075985;28;20244;-59
2022/06/18 07:09:18;;;;;;;135.13;67.60;;;;;;;25.02;45.31;97023.69;2068236;28;20205;-60
2022/06/18 07:10:20;;;;;;;127.55;56.92;;;;;;;25.40;44.20;97013.75;2068608;28;20194;-59
2022/06/18 07:11:21;;;;;;;133.52;66.38;;;;;;;25.12;44.55;97024.47;2069219;28;20694;-59
2022/06/18 07:12:23;;;;;;;134.10;67.10;;;;;;;25.19;44.29;97024.69;2062258;28;20229;-60
2022/06/18 07:13:25;;;;;;;130.07;62.30;;;;;;;25.36;43.76;97023.91;2067349;28;20194;-60
2022/06/18 07:14:26;;;;;;;144.45;70.78;;;;;;;25.35;42.76;96998.13;2069763;28;20209;-59
2022/06/18 07:15:28;;;;;;;129.88;60.03;;;;;;;25.65;42.79;97009.47;2070714;28;20641;-59
2022/06/18 07:16:29;;;;;;;128.57;60.83;;;;;;;25.89;42.16;97011.47;2068054;28;20204;-59
2022/06/18 07:17:31;;;;;;;129.73;62.40;;;;;;;26.10;42.03;97021.00;2064328;28;20224;-60
2022/06/18 07:18:35;;;;;;;226.02;203.23;;;;;;;26.02;39.92;97028.97;2075642;28;20193;-60
2022/06/18 07:19:37;;;;;;;194.70;170.52;;;;;;;26.03;39.49;97019.91;2069387;28;20194;-59
2022/06/18 07:20:38;;;;;;;120.80;52.33;;;;;;;26.07;39.03;97019.47;2066025;28;20209;-59
2022/06/18 07:21:39;;;;;;;141.50;79.65;;;;;;;26.37;38.39;97019.16;2069028;28;20202;-60
2022/06/18 07:22:41;;;;;;;123.32;55.17;;;;;;;26.44;38.58;97019.38;2064002;28;20222;-60
2022/06/18 07:23:43;;;;;;;147.60;89.20;;;;;;;26.56;38.94;97013.56;2064584;28;20583;-60
2022/06/18 07:24:44;;;;;;;114.20;37.90;;;;;;;26.66;37.35;97017.97;2067026;28;20194;-60
2022/06/18 07:25:45;;;;;;;119.00;48.88;;;;;;;26.72;36.95;97014.66;2064254;28;20194;-60
2022/06/18 07:26:47;;;;;;;112.85;22.33;;;;;;;26.64;34.85;97019.94;2064365;28;20309;-60
2022/06/18 07:27:52;;;;;;;112.95;33.20;;;;;;;26.72;32.52;97017.31;2064270;28;20222;-60
2022/06/18 07:28:54;;;;;;;113.07;33.83;;;;;;;26.72;32.56;97003.94;2077054;28;20567;-60
2022/06/18 07:29:57;;;;;;;113.68;30.35;;;;;;;26.76;33.32;97015.19;2068375;28;20656;-60
2022/06/18 07:30:59;;;;;;;112.07;31.20;;;;;;;26.65;34.48;97010.91;2069584;28;20209;-60
2022/06/18 07:32:11;;;;;;;107.40;20.48;;;;;;;26.58;34.53;97001.88;2061531;28;20642;-59
2022/06/18 07:33:15;;;;;;;105.43;18.38;;;;;;;26.82;34.78;96993.94;2075227;28;20201;-60
2022/06/18 07:34:16;;;;;;;105.90;19.45;;;;;;;26.91;34.93;97016.25;2071717;28;20202;-60
2022/06/18 07:35:22;;;;;;;108.90;23.30;;;;;;;26.94;34.25;97018.59;2064553;28;20744;-60
2022/06/18 07:36:26;;;;;;;112.68;23.30;;;;;;;26.85;33.96;97016.91;2064385;28;20586;-60
2022/06/18 07:37:29;;;;;;;106.95;22.75;;;;;;;27.00;33.90;97009.06;2060474;28;20920;-60
2022/06/18 07:38:30;;;;;;;112.20;26.48;;;;;;;27.08;33.69;97016.28;2075360;28;20204;-60
2022/06/18 07:39:32;;;;;;;113.57;34.05;;;;;;;27.14;32.98;97012.97;2072909;28;20268;-60
2022/06/18 07:40:37;;;;;;;113.47;37.50;;;;;;;27.19;32.87;97010.63;2070909;28;20200;-60
2022/06/18 07:41:48;;;;;;;110.35;25.38;;;;;;;27.23;32.61;97003.94;2064175;28;20578;-60
2022/06/18 07:42:52;;;;;;;109.97;27.08;;;;;;;27.27;30.45;96993.72;2066789;28;20632;-60
2022/06/18 07:43:58;;;;;;;106.45;15.30;;;;;;;27.31;30.55;96987.00;2068185;28;20208;-60
2022/06/18 07:45:00;;;;;;;105.18;20.48;;;;;;;27.42;30.99;97012.72;2066863;28;20248;-60
2022/06/18 07:46:03;;;;;;;105.38;23.17;;;;;;;27.49;31.74;97006.50;2067154;28;20202;-60
2022/06/18 07:47:04;;;;;;;104.05;18.00;;;;;;;27.42;30.97;97010.03;2059696;28;20585;-60
2022/06/18 07:48:06;;;;;;;106.03;14.15;;;;;;;27.46;30.65;97008.69;2078142;28;20205;-60
2022/06/18 07:49:08;;;;;;;112.90;32.30;;;;;;;27.54;29.51;97006.00;2073451;28;20287;-60
2022/06/18 07:50:09;;;;;;;147.40;76.82;;;;;;;27.41;27.82;97001.13;2068841;28;20241;-60
2022/06/18 07:51:12;;;;;;;117.10;28.52;;;;;;;27.64;30.04;96981.69;2068200;28;20300;-60
2022/06/18 07:52:14;;;;;;;106.60;23.52;;;;;;;27.95;29.81;96999.81;2063435;28;20237;-60
2022/06/18 07:53:18;;;;;;;213.70;191.35;;;;;;;27.75;28.96;97002.81;2073557;28;20564;-60
2022/06/18 07:54:20;;;;;;;154.75;107.95;;;;;;;27.52;29.93;96992.75;2069811;28;20650;-60
2022/06/18 07:55:25;;;;;;;116.82;40.70;;;;;;;27.64;30.12;97000.47;2064079;28;20330;-60
2022/06/18 07:56:26;;;;;;;243.63;219.55;;;;;;;27.80;29.33;97005.00;2064133;28;20206;-60
2022/06/18 07:57:28;;;;;;;218.20;195.68;;;;;;;27.87;29.34;97000.63;2059871;28;20799;-60
2022/06/18 07:58:29;;;;;;;107.93;25.45;;;;;;;28.18;30.25;97005.31;2071502;28;20201;-60
2022/06/18 07:59:32;;;;;;;121.45;26.60;;;;;;;28.01;29.71;96999.94;2067073;28;20294;-61
2022/06/18 08:00:34;;;;;;;117.07;32.78;;;;;;;27.68;30.25;96999.97;2067039;28;20206;-60
2022/06/18 08:01:35;;;;;;;120.18;47.78;;;;;;;27.83;29.29;96994.78;2065967;28;20224;-61
2022/06/18 08:02:39;;;;;;;109.18;26.85;;;;;;;27.68;29.54;97002.66;2066491;28;20729;-60
2022/06/18 08:03:40;;;;;;;145.32;94.65;;;;;;;27.87;29.62;97000.63;2068231;28;20559;-60
2022/06/18 08:04:42;;;;;;;135.75;60.17;;;;;;;27.83;29.63;96980.50;2067000;28;20283;-60
2022/06/18 08:05:45;;;;;;;185.98;155.73;;;;;;;28.31;28.76;97000.22;2066355;28;20592;-61
2022/06/18 08:06:47;;;;;;;217.45;195.75;;;;;;;28.53;28.36;97000.50;2068994;28;20201;-60
2022/06/18 08:07:49;;;;;;;196.18;175.52;;;;;;;28.58;27.72;97000.84;2064516;28;20633;-60
2022/06/18 08:09:10;;;;;;;121.18;32.35;;;;;;;28.43;26.12;96998.03;2073547;28;20204;-60
2022/06/18 08:10:11;;;;;;;102.50;8.43;;;;;;;28.49;26.44;97000.03;2067494;28;20414;-60
2022/06/18 08:11:15;;;;;;;128.00;55.38;;;;;;;28.61;27.31;96991.59;2067524;28;20569;-60
2022/06/18 08:12:17;;;;;;;109.18;19.92;;;;;;;28.47;27.20;97003.91;2060496;28;20386;-61
2022/06/18 08:13:19;;;;;;;113.90;25.83;;;;;;;28.52;27.18;96993.47;2076478;28;20213;-60
2022/06/18 08:14:22;;;;;;;145.20;75.45;;;;;;;28.44;27.79;96997.03;2073550;28;20230;-60
2022/06/18 08:15:24;;;;;;;129.25;44.85;;;;;;;28.31;27.54;96997.56;2070210;28;20199;-60
2022/06/18 08:16:25;;;;;;;121.07;30.17;;;;;;;28.47;27.02;97002.03;2068099;28;20597;-60
2022/06/18 08:17:27;;;;;;;130.57;60.38;;;;;;;28.84;26.97;97005.13;2058082;28;20313;-60
2022/06/18 08:18:29;;;;;;;143.93;85.57;;;;;;;29.25;26.96;96994.13;2071450;28;20194;-60
2022/06/18 08:19:31;;;;;;;138.35;59.17;;;;;;;29.28;26.82;97003.72;2068187;28;20253;-60
2022/06/18 08:20:34;;;;;;;120.07;42.15;;;;;;;29.24;26.84;97000.53;2069658;28;20194;-60
2022/06/18 08:21:42;;;;;;;201.52;179.68;;;;;;;28.90;28.31;96999.06;2067431;28;20212;-60
2022/06/18 08:22:45;;;;;;;165.93;127.07;;;;;;;28.44;29.92;96975.56;2066984;28;20222;-60
2022/06/18 08:23:48;;;;;;;160.55;122.72;;;;;;;28.45;29.68;97003.22;2066970;28;20246;-60
2022/06/18 08:24:51;;;;;;;153.95;110.15;;;;;;;28.92;29.68;96994.31;2066603;28;20595;-60
2022/06/18 08:25:52;;;;;;;107.18;26.20;;;;;;;29.09;29.79;96997.75;2063325;28;20194;-60
2022/06/18 08:26:54;;;;;;;137.95;81.43;;;;;;;28.83;29.41;97000.75;2060571;28;20210;-59
2022/06/18 08:27:59;;;;;;;158.63;126.20;;;;;;;28.24;29.75;96972.44;2073975;28;20221;-60
2022/06/18 08:29:04;;;;;;;159.23;123.75;;;;;;;28.89;29.08;96997.38;2075051;28;20217;-60
2022/06/18 08:30:06;;;;;;;158.88;124.05;;;;;;;29.07;29.13;96993.59;2067434;28;20194;-60
2022/06/18 08:31:09;;;;;;;139.23;83.28;;;;;;;29.45;28.36;96994.50;2067339;28;20194;-60
2022/06/18 08:32:10;;;;;;;137.07;74.82;;;;;;;28.93;29.36;96981.72;2060277;28;20534;-60
2022/06/18 08:33:12;;;;;;;144.90;87.25;;;;;;;28.58;29.88;96995.47;2075000;28;20669;-60
2022/06/18 08:34:13;;;;;;;113.68;31.80;;;;;;;28.80;29.79;96980.44;2074731;28;20197;-60
2022/06/18 08:35:21;;;;;;;121.97;55.05;;;;;;;28.98;29.50;96985.56;2065778;28;20202;-60
2022/06/18 08:36:24;;;;;;;106.72;28.85;;;;;;;29.23;29.58;96993.47;2067777;28;20206;-60
2022/06/18 08:37:26;;;;;;;133.05;66.25;;;;;;;29.16;29.39;96990.66;2062183;28;20220;-60
2022/06/18 08:38:29;;;;;;;130.50;63.35;;;;;;;29.47;29.58;96979.06;2076372;28;20811;-60
2022/06/18 08:39:32;;;;;;;120.57;49.42;;;;;;;29.61;29.27;96984.63;2070242;28;20198;-61
2022/06/18 08:40:45;;;;;;;131.32;69.95;;;;;;;29.28;28.72;96985.75;2067829;28;20202;-60
2022/06/18 08:42:06;;;;;;;155.50;109.60;;;;;;;28.58;29.79;96991.94;2070184;28;20221;-61
2022/06/18 08:43:31;;;;;;;162.13;129.18;;;;;;;29.12;28.98;96985.81;2065741;28;20217;-61
2022/06/18 08:45:07;;;;;;;146.50;85.28;;;;;;;29.28;29.43;96977.69;2067649;28;20205;-61
2022/06/18 08:46:08;;;;;;;94.13;7.43;;;;;;;29.91;29.58;96979.38;2068087;28;20209;-61
2022/06/18 08:47:34;;;;;;;99.50;15.80;;;;;;;30.22;28.82;96975.69;2061396;28;20237;-61
2022/06/18 08:49:00;;;;;;;132.30;73.37;;;;;;;30.42;28.26;96987.59;2073194;28;20220;-61
2022/06/18 08:50:25;;;;;;;221.00;199.23;;;;;;;30.36;27.75;96979.41;2069994;28;20467;-61
2022/06/18 08:51:38;;;;;;;182.60;162.83;;;;;;;30.51;27.67;96977.56;2064858;28;20827;-61
2022/06/18 08:53:01;;;;;;;223.97;201.67;;;;;;;31.03;27.23;96980.28;2061375;28;20870;-61
2022/06/18 08:54:06;;;;;;;161.30;115.10;;;;;;;31.07;26.13;96982.44;2073473;28;20423;-61
2022/06/18 08:55:16;;;;;;;136.40;74.70;;;;;;;30.13;27.53;96978.47;2068023;28;20749;-61
2022/06/18 08:56:33;;;;;;;144.57;100.77;;;;;;;30.62;27.12;96979.78;2066273;28;20934;-61
2022/06/18 08:57:42;;;;;;;105.27;20.37;;;;;;;30.52;26.41;96981.13;2064056;28;20994;-61
2022/06/18 08:59:20;;;;;;;118.07;40.17;;;;;;;30.23;26.34;96970.13;2074385;28;20906;-61
2022/06/18 09:00:27;;;;;;;109.50;19.87;;;;;;;29.96;25.86;96961.66;2066336;28;20895;-61
2022/06/18 09:01:36;;;;;;;104.15;14.80;;;;;;;30.49;25.59;96968.00;2065593;28;20435;-61
2022/06/18 09:03:09;;;;;;;104.17;14.67;;;;;;;29.72;24.81;96973.44;2066454;28;20225;-61
2022/06/18 09:05:00;;;;;;;102.65;12.18;;;;;;;29.44;25.68;96974.00;2067481;28;20438;-61
2022/06/18 09:06:22;;;;;;;100.87;8.87;;;;;;;30.26;25.43;96969.75;2067884;28;20202;-61
2022/06/18 09:08:01;;;;;;;102.88;10.73;;;;;;;28.96;25.38;96967.94;2060624;28;20473;-61
2022/06/18 09:09:25;;;;;;;101.05;6.60;;;;;;;29.80;25.21;96970.69;2072619;28;20980;-61
2022/06/18 09:10:54;;;;;;;101.20;7.03;;;;;;;30.21;25.34;96963.28;2066318;28;20202;-61
2022/06/18 09:12:31;;;;;;;101.47;10.55;;;;;;;29.95;26.23;96970.75;2058055;28;20430;-61
2022/06/18 09:13:41;;;;;;;123.38;37.95;;;;;;;29.62;23.43;96962.97;2066886;28;20337;-61
2022/06/18 09:14:45;;;;;;;109.63;14.02;;;;;;;29.70;23.48;96958.50;2067449;28;20201;-61
2022/06/18 09:15:53;;;;;;;135.80;54.17;;;;;;;29.74;24.00;96941.00;2067227;28;20198;-61
2022/06/18 09:17:08;;;;;;;101.95;9.27;;;;;;;29.90;24.93;96965.09;2060223;28;20198;-60
2022/06/18 09:18:23;;;;;;;104.63;9.43;;;;;;;30.73;24.72;96954.22;2068877;28;20251;-62
2022/06/18 09:19:28;;;;;;;102.30;9.57;;;;;;;31.25;24.48;96967.69;2066530;28;20572;-62
2022/06/18 09:20:36;;;;;;;104.70;13.87;;;;;;;31.34;24.79;96957.59;2068017;28;20198;-61
2022/06/18 09:21:45;;;;;;;105.43;17.10;;;;;;;30.68;24.20;96943.19;2070123;28;20794;-62
2022/06/18 09:22:51;;;;;;;106.38;16.20;;;;;;;30.59;25.23;96963.19;2068921;28;20840;-62
2022/06/18 09:23:59;;;;;;;103.87;12.93;;;;;;;30.98;23.55;96955.75;2067085;28;20633;-61
2022/06/18 09:25:12;;;;;;;124.23;41.60;;;;;;;30.89;23.35;96949.63;2067005;28;20435;-62
2022/06/18 09:26:20;;;;;;;118.17;38.63;;;;;;;30.88;23.55;96951.50;2068708;28;20427;-61
2022/06/18 09:27:25;;;;;;;110.30;26.67;;;;;;;30.84;23.12;96950.19;2062117;28;20465;-62
2022/06/18 09:28:33;;;;;;;124.27;53.87;;;;;;;30.89;22.65;96938.84;2075510;28;20430;-62
2022/06/18 09:29:44;;;;;;;124.80;53.67;;;;;;;30.71;21.70;96950.06;2071713;28;20474;-61
2022/06/18 09:30:51;;;;;;;121.50;49.60;;;;;;;30.83;21.98;96955.78;2066712;28;20755;-61
2022/06/18 09:32:06;;;;;;;129.00;64.60;;;;;;;31.05;22.90;96948.56;2069470;28;20801;-60
2022/06/18 09:33:28;;;;;;;117.90;39.77;;;;;;;31.10;23.87;96957.78;2063413;28;20463;-61
2022/06/18 09:34:37;;;;;;;110.40;23.23;;;;;;;30.86;23.85;96950.03;2067096;28;20431;-61
2022/06/18 09:35:47;;;;;;;104.57;14.60;;;;;;;30.82;24.22;96952.25;2063547;28;20444;-62
2022/06/18 09:36:58;;;;;;;112.00;32.03;;;;;;;31.57;22.52;96955.53;2063596;28;20889;-61
2022/06/18 09:38:12;;;;;;;122.67;52.53;;;;;;;31.55;22.30;96951.34;2067115;28;20454;-61
2022/06/18 09:39:17;;;;;;;124.53;53.93;;;;;;;31.80;21.73;96957.19;2065947;28;20450;-61
2022/06/18 09:40:29;;;;;;;118.57;43.70;;;;;;;31.72;21.39;96949.25;2068075;28;20454;-61
2022/06/18 09:41:39;;;;;;;125.60;57.60;;;;;;;31.01;22.41;96952.66;2076077;28;20451;-61
2022/06/18 09:42:48;;;;;;;123.37;51.37;;;;;;;30.27;22.64;96933.72;2064124;28;20470;-61
2022/06/18 09:44:06;;;;;;;121.67;47.77;;;;;;;30.88;22.28;96946.13;2071127;28;20427;-61
2022/06/18 09:45:22;;;;;;;120.33;49.20;;;;;;;30.97;22.57;96948.69;2063574;28;20435;-61
2022/06/18 09:46:32;;;;;;;122.67;46.43;;;;;;;31.92;21.07;96952.94;2063535;28;20835;-61
2022/06/18 09:47:41;;;;;;;121.30;48.87;;;;;;;32.35;21.55;96952.00;2059283;28;20471;-61
2022/06/18 09:48:43;;;;;;;119.07;44.70;;;;;;;32.64;21.36;96951.91;2074607;28;20431;-62
2022/06/18 09:49:46;;;;;;;117.27;45.80;;;;;;;32.83;21.59;96950.34;2069732;28;20858;-62
2022/06/18 09:50:51;;;;;;;113.10;37.40;;;;;;;33.04;20.91;96942.09;2067796;28;20432;-62
2022/06/18 09:52:16;;;;;;;109.40;32.67;;;;;;;33.33;19.98;96948.22;2067188;28;20799;-61
2022/06/18 09:53:42;;;;;;;117.37;50.67;;;;;;;32.53;20.70;96937.94;2067247;28;20448;-62
2022/06/18 09:54:52;;;;;;;113.30;39.23;;;;;;;32.79;20.60;96946.38;2067903;28;20443;-62
2022/06/18 09:56:05;;;;;;;114.90;35.10;;;;;;;31.91;22.67;96943.16;2067755;28;20435;-61
2022/06/18 09:57:08;;;;;;;107.67;28.70;;;;;;;32.06;22.00;96951.16;2067893;28;20769;-62
2022/06/18 09:58:17;;;;;;;111.27;37.10;;;;;;;31.81;22.20;96955.31;2068461;28;20916;-61
2022/06/18 09:59:25;;;;;;;109.13;26.60;;;;;;;31.64;22.71;96950.22;2069509;28;20898;-61
2022/06/18 10:00:30;;;;;;;107.30;27.00;;;;;;;31.62;22.24;96946.84;2064442;28;20772;-61
2022/06/18 10:01:47;;;;;;;106.60;27.07;;;;;;;31.83;21.19;96948.69;2065959;28;20516;-61
2022/06/18 10:02:54;;;;;;;132.80;69.10;;;;;;;31.52;21.46;96940.97;2063483;28;20825;-61
2022/06/18 10:06:55;;;;;;;111.77;38.97;;;;;;;32.33;20.40;96943.25;2067413;28;20424;-61
2022/06/18 10:08:14;;;;;;;109.07;38.03;;;;;;;32.08;19.69;96943.69;2067326;28;20438;-61
2022/06/18 10:09:19;;;;;;;116.37;48.90;;;;;;;32.14;20.29;96933.97;2067411;28;20622;-61
2022/06/18 10:10:25;;;;;;;117.60;50.27;;;;;;;32.40;20.03;96935.16;2066077;28;20428;-61
2022/06/18 10:11:26;;;;;;;117.37;45.47;;;;;;;32.19;21.00;96936.13;2067655;28;20435;-61
2022/06/18 10:12:37;;;;;;;114.50;41.40;;;;;;;32.16;20.77;96939.16;2060812;28;20477;-61
2022/06/18 10:13:47;;;;;;;112.83;38.50;;;;;;;30.69;20.81;96934.09;2073631;28;20906;-61
2022/06/18 10:14:52;;;;;;;108.73;37.57;;;;;;;30.61;20.18;96936.88;2067723;28;20432;-60
2022/06/18 10:16:02;;;;;;;108.40;34.33;;;;;;;29.55;20.61;96869.72;2068464;28;20791;-61
2022/06/18 10:17:11;;;;;;;125.70;63.93;;;;;;;30.17;20.77;96929.63;2066129;28;20923;-60
2022/06/18 10:18:12;;;;;;;123.47;54.63;;;;;;;30.64;20.23;96927.56;2067192;28;20424;-61
2022/06/18 10:19:38;;;;;;;120.60;50.20;;;;;;;31.13;20.60;96909.91;2067730;28;20748;-61
2022/06/18 10:20:46;;;;;;;113.83;42.70;;;;;;;31.55;20.13;96911.75;2066819;28;20423;-61
2022/06/18 10:21:55;;;;;;;126.63;58.40;;;;;;;31.39;20.38;96920.94;2068394;28;20415;-61
2022/06/18 10:23:48;;;;;;;115.50;45.37;;;;;;;31.69;19.21;96926.19;2067213;28;20824;-61
2022/06/18 10:24:59;;;;;;;102.10;22.23;;;;;;;31.77;18.37;96910.88;2069196;28;20439;-62
2022/06/18 10:26:12;;;;;;;98.50;15.27;;;;;;;32.34;18.83;96917.06;2065285;28;20439;-62
2022/06/18 10:27:26;;;;;;;103.97;26.33;;;;;;;31.99;19.28;96915.19;2060046;28;20838;-61
2022/06/18 10:28:52;;;;;;;104.53;26.20;;;;;;;31.72;19.46;96911.47;2073882;28;20436;-62
2022/06/18 10:30:05;;;;;;;111.00;29.00;;;;;;;32.29;19.07;96912.28;2068631;28;20467;-62
2022/06/18 10:31:29;;;;;;;112.17;44.33;;;;;;;32.48;18.66;96897.19;2068162;28;20423;-61
2022/06/18 10:32:58;;;;;;;103.43;21.37;;;;;;;32.56;19.20;96905.09;2059770;28;21008;-61
2022/06/18 10:34:12;;;;;;;98.20;5.03;;;;;;;32.01;17.25;96905.03;2075087;28;20450;-60
2022/06/18 10:35:19;;;;;;;90.20;3.00;;;;;;;32.00;17.29;96899.78;2067447;28;20783;-61
2022/06/18 10:36:33;;;;;;;88.40;2.30;;;;;;;32.45;17.48;96900.28;2068384;28;20438;-61
2022/06/18 10:37:46;;;;;;;91.50;2.70;;;;;;;32.68;17.79;96904.53;2064514;28;20462;-61
2022/06/18 10:39:17;;;;;;;92.17;7.70;;;;;;;32.32;18.43;96892.94;2069015;28;20439;-59
2022/06/18 10:40:37;;;;;;;97.40;17.63;;;;;;;32.52;18.97;96893.03;2064730;28;20447;-60
2022/06/18 10:42:01;;;;;;;96.60;15.00;;;;;;;32.60;18.61;96900.13;2064816;28;20428;-60
2022/06/18 10:43:20;;;;;;;104.10;13.47;;;;;;;32.49;18.99;96890.72;2066908;28;20950;-60
2022/06/18 10:44:32;;;;;;;93.10;9.00;;;;;;;32.23;18.96;96891.47;2068273;28;20431;-60
2022/06/18 10:45:44;;;;;;;104.57;24.20;;;;;;;32.87;19.06;96886.72;2068916;28;20494;-60
2022/06/18 10:46:45;;;;;;;111.97;38.50;;;;;;;32.98;19.70;96891.53;2068921;28;20446;-60
2022/06/18 10:47:50;;;;;;;109.63;32.03;;;;;;;32.95;19.37;96893.81;2066000;28;20869;-60
2022/06/18 10:48:59;;;;;;;109.97;28.63;;;;;;;33.31;19.06;96893.47;2076775;28;20544;-60
2022/06/18 10:50:08;;;;;;;101.33;21.87;;;;;;;33.48;18.30;96893.88;2068699;28;21031;-60
2022/06/18 10:51:16;;;;;;;93.30;9.37;;;;;;;33.80;17.80;96887.81;2067760;28;20436;-61
2022/06/18 10:52:23;;;;;;;96.20;8.13;;;;;;;33.78;18.06;96889.94;2059191;28;20502;-61
2022/06/18 10:53:29;;;;;;;97.90;12.30;;;;;;;33.57;18.59;96891.78;2076709;28;20846;-60
2022/06/18 10:54:34;;;;;;;111.87;42.00;;;;;;;32.61;19.63;96887.44;2071866;28;20427;-60
2022/06/18 10:55:36;;;;;;;111.63;40.03;;;;;;;32.93;19.90;96894.00;2069883;28;20805;-60
2022/06/18 10:56:58;;;;;;;115.30;34.67;;;;;;;33.12;20.16;96884.28;2070224;28;20839;-61
2022/06/18 10:58:10;;;;;;;126.87;58.03;;;;;;;32.16;20.72;96888.69;2071503;28;20447;-65
2022/06/18 10:59:11;;;;;;;129.53;69.57;;;;;;;32.08;21.12;96886.97;2069816;28;20446;-60
2022/06/18 11:00:18;;;;;;;126.93;56.90;;;;;;;32.76;20.32;96887.31;2068796;28;20423;-60